עמוד ראשי
METAR-TAF:

METAR-TAF

שדות תעופה :

אולגין, קובה

קו רוחב: 20-47N, קו אורך: 076-19W, גובה: 106מטר

תצפית מזג אוויר נוכחית

הדו"ח נערך לפני 48דקות, בשעה 13:50 UTC
רוח 4קשר מכיוון דרום-מזרח, משתנה בין מזרח ו דרום/דרום-מערב
טמפרטורת 29 צלסיוס
לחות 74%
לחץ 1016 hPa
ראות: 9000מטר
מעט עננים בגובה 2000רגל
עננים בינוניים בגובה 25000רגל

METAR: MUHG 131350Z 14004KT 100V210 9000 FEW020 BKN250 29/24 Q1016

זמן: 10:38 (14:38 UTC)

תחזית

הדו"ח נערך לפני 3 שעות ו 38דקות, בשעה 11:00 UTC
תחזית בתוקף מ 13 ב 12 UTC עד 14 ב 12 UTC
רוח 4קשר עם כיוונים משתנים
ראות: 9000מטר
מעט עננים בגובה 2000רגל
עננים בינוניים בגובה 15000רגל
יעשה מ
13 ב 17 UTC עד 13 ב 19 UTC
רוח 8קשר מכיוון דרום/דרום-מזרח
זמנית מ -
13 ב 20 UTC עד 13 ב 23 UTC
מעט עננים בגובה 2000רגל , קומולוס מיגדלי.
עננים בינוניים בגובה 3000רגל

TAF: MUHG 131100Z 1312/1412 VRB04KT 9000 FEW020 BKN150 BECMG 1317/1319 16008KT TEMPO 1320/1323 FEW020TCU BKN030

תצפיות ותחזיות מזג אוויר לגבי יותר מ- 4,000 שדות תעופה ברחבי העולם. דוחות METAR ו- TAF.

התחנות הזמינות מסומנות בנקודות צהובות ואדומות על גבי המפה.

העבר את העכבר לנקודה הצבעונית על מנת לראות את שם התחנה.

לאחר מכן, לחץ כדי לראות את תוכן ואת תחזיות מזג האוויר.

כדי לשנות את המפה: לחץ על הכפתורים הירוקים עם הפלוס השחור כדי להתקרב; על הכפתור הירוק עם המקף כדי להתרחק; או בחיצים הירוקים למפות סמוכות.


METAR-TAF: